sensor_id;sensor_type;location;lat;lon;timestamp;P1;durP1;ratioP1;P2;durP2;ratioP2
54853;SDS011;40747;49.480;8.658;2023-06-10T00:01:38;4.22;;;2.92;;
54853;SDS011;40747;49.480;8.658;2023-06-10T00:04:04;3.88;;;3.15;;
54853;SDS011;40747;49.480;8.658;2023-06-10T00:06:30;4.60;;;3.35;;
54853;SDS011;40747;49.480;8.658;2023-06-10T00:09:00;4.70;;;2.97;;
54853;SDS011;40747;49.480;8.658;2023-06-10T00:11:26;4.32;;;3.10;;
54853;SDS011;40747;49.480;8.658;2023-06-10T00:13:51;4.07;;;2.83;;
54853;SDS011;40747;49.480;8.658;2023-06-10T00:16:16;5.68;;;3.83;;
54853;SDS011;40747;49.480;8.658;2023-06-10T00:18:42;3.60;;;2.95;;
54853;SDS011;40747;49.480;8.658;2023-06-10T00:21:09;3.50;;;3.00;;
54853;SDS011;40747;49.480;8.658;2023-06-10T00:23:34;3.90;;;2.58;;
54853;SDS011;40747;49.480;8.658;2023-06-10T00:26:03;3.67;;;2.72;;
54853;SDS011;40747;49.480;8.658;2023-06-10T00:28:28;6.63;;;3.58;;
54853;SDS011;40747;49.480;8.658;2023-06-10T00:30:53;4.50;;;3.28;;
54853;SDS011;40747;49.480;8.658;2023-06-10T00:33:19;4.43;;;3.03;;
54853;SDS011;40747;49.480;8.658;2023-06-10T00:35:44;3.80;;;2.92;;
54853;SDS011;40747;49.480;8.658;2023-06-10T00:38:10;6.38;;;3.45;;
54853;SDS011;40747;49.480;8.658;2023-06-10T00:40:39;5.47;;;3.72;;
54853;SDS011;40747;49.480;8.658;2023-06-10T00:43:05;4.45;;;2.85;;
54853;SDS011;40747;49.480;8.658;2023-06-10T00:45:31;3.22;;;2.92;;
54853;SDS011;40747;49.480;8.658;2023-06-10T00:47:56;5.07;;;3.47;;
54853;SDS011;40747;49.480;8.658;2023-06-10T00:50:22;5.22;;;2.97;;
54853;SDS011;40747;49.480;8.658;2023-06-10T00:52:48;5.00;;;3.47;;
54853;SDS011;40747;49.480;8.658;2023-06-10T00:55:14;5.57;;;3.28;;
54853;SDS011;40747;49.480;8.658;2023-06-10T00:57:41;4.95;;;3.75;;
54853;SDS011;40747;49.480;8.658;2023-06-10T01:00:10;4.00;;;2.80;;
54853;SDS011;40747;49.480;8.658;2023-06-10T01:02:36;4.38;;;3.30;;
54853;SDS011;40747;49.480;8.658;2023-06-10T01:05:01;5.00;;;3.40;;
54853;SDS011;40747;49.480;8.658;2023-06-10T01:07:33;4.22;;;3.05;;
54853;SDS011;40747;49.480;8.658;2023-06-10T01:10:28;4.28;;;3.22;;
54853;SDS011;40747;49.480;8.658;2023-06-10T01:13:12;5.10;;;3.28;;
54853;SDS011;40747;49.480;8.658;2023-06-10T01:15:38;4.90;;;3.47;;
54853;SDS011;40747;49.480;8.658;2023-06-10T01:18:05;3.05;;;2.75;;
54853;SDS011;40747;49.480;8.658;2023-06-10T01:20:35;5.03;;;3.13;;
54853;SDS011;40747;49.480;8.658;2023-06-10T01:23:05;4.22;;;2.83;;
54853;SDS011;40747;49.480;8.658;2023-06-10T01:25:31;6.63;;;2.88;;
54853;SDS011;40747;49.480;8.658;2023-06-10T01:28:06;4.30;;;3.13;;
54853;SDS011;40747;49.480;8.658;2023-06-10T01:30:42;8.48;;;3.92;;
54853;SDS011;40747;49.480;8.658;2023-06-10T01:33:14;5.72;;;3.15;;
54853;SDS011;40747;49.480;8.658;2023-06-10T01:35:43;5.05;;;3.50;;
54853;SDS011;40747;49.480;8.658;2023-06-10T01:38:10;4.97;;;3.63;;
54853;SDS011;40747;49.480;8.658;2023-06-10T01:40:37;4.70;;;3.40;;
54853;SDS011;40747;49.480;8.658;2023-06-10T01:43:03;5.18;;;3.65;;
54853;SDS011;40747;49.480;8.658;2023-06-10T01:45:29;5.88;;;3.28;;
54853;SDS011;40747;49.480;8.658;2023-06-10T01:47:54;6.30;;;3.17;;
54853;SDS011;40747;49.480;8.658;2023-06-10T01:50:19;5.82;;;3.67;;
54853;SDS011;40747;49.480;8.658;2023-06-10T01:52:45;4.40;;;3.47;;
54853;SDS011;40747;49.480;8.658;2023-06-10T01:55:10;5.25;;;3.33;;
54853;SDS011;40747;49.480;8.658;2023-06-10T01:57:35;3.92;;;3.08;;
54853;SDS011;40747;49.480;8.658;2023-06-10T02:00:01;3.42;;;2.72;;
54853;SDS011;40747;49.480;8.658;2023-06-10T02:02:28;6.90;;;3.22;;
54853;SDS011;40747;49.480;8.658;2023-06-10T02:04:53;6.10;;;3.40;;
54853;SDS011;40747;49.480;8.658;2023-06-10T02:07:18;3.92;;;3.08;;
54853;SDS011;40747;49.480;8.658;2023-06-10T02:09:44;3.55;;;3.25;;
54853;SDS011;40747;49.480;8.658;2023-06-10T02:12:09;3.05;;;2.72;;
54853;SDS011;40747;49.480;8.658;2023-06-10T02:14:35;6.70;;;3.05;;
54853;SDS011;40747;49.480;8.658;2023-06-10T02:17:00;5.50;;;3.33;;
54853;SDS011;40747;49.480;8.658;2023-06-10T02:19:26;3.85;;;3.30;;
54853;SDS011;40747;49.480;8.658;2023-06-10T02:21:51;5.25;;;3.60;;
54853;SDS011;40747;49.480;8.658;2023-06-10T02:24:17;4.57;;;3.10;;
54853;SDS011;40747;49.480;8.658;2023-06-10T02:26:42;3.65;;;2.90;;
54853;SDS011;40747;49.480;8.658;2023-06-10T02:29:08;3.53;;;2.80;;
54853;SDS011;40747;49.480;8.658;2023-06-10T02:31:33;4.28;;;3.03;;
54853;SDS011;40747;49.480;8.658;2023-06-10T02:34:00;3.63;;;2.88;;
54853;SDS011;40747;49.480;8.658;2023-06-10T02:36:26;5.78;;;3.22;;
54853;SDS011;40747;49.480;8.658;2023-06-10T02:38:53;4.57;;;3.50;;
54853;SDS011;40747;49.480;8.658;2023-06-10T02:41:18;3.97;;;3.25;;
54853;SDS011;40747;49.480;8.658;2023-06-10T02:43:44;3.58;;;3.17;;
54853;SDS011;40747;49.480;8.658;2023-06-10T02:46:09;4.15;;;3.42;;
54853;SDS011;40747;49.480;8.658;2023-06-10T02:48:40;3.58;;;2.97;;
54853;SDS011;40747;49.480;8.658;2023-06-10T02:51:07;4.07;;;3.13;;
54853;SDS011;40747;49.480;8.658;2023-06-10T02:53:32;4.63;;;3.30;;
54853;SDS011;40747;49.480;8.658;2023-06-10T02:55:58;3.60;;;2.97;;
54853;SDS011;40747;49.480;8.658;2023-06-10T02:58:23;4.75;;;3.10;;
54853;SDS011;40747;49.480;8.658;2023-06-10T03:00:49;5.20;;;3.13;;
54853;SDS011;40747;49.480;8.658;2023-06-10T03:03:14;5.10;;;3.28;;
54853;SDS011;40747;49.480;8.658;2023-06-10T03:05:40;4.45;;;3.67;;
54853;SDS011;40747;49.480;8.658;2023-06-10T03:08:05;3.78;;;2.83;;
54853;SDS011;40747;49.480;8.658;2023-06-10T03:10:30;3.78;;;2.90;;
54853;SDS011;40747;49.480;8.658;2023-06-10T03:12:57;4.10;;;3.20;;
54853;SDS011;40747;49.480;8.658;2023-06-10T03:15:23;5.13;;;3.38;;
54853;SDS011;40747;49.480;8.658;2023-06-10T03:17:49;4.97;;;3.40;;
54853;SDS011;40747;49.480;8.658;2023-06-10T03:20:14;3.90;;;3.50;;
54853;SDS011;40747;49.480;8.658;2023-06-10T03:22:40;4.03;;;3.22;;
54853;SDS011;40747;49.480;8.658;2023-06-10T03:25:06;5.00;;;3.45;;
54853;SDS011;40747;49.480;8.658;2023-06-10T03:27:33;4.20;;;3.13;;
54853;SDS011;40747;49.480;8.658;2023-06-10T03:29:58;4.22;;;3.45;;
54853;SDS011;40747;49.480;8.658;2023-06-10T03:32:23;4.07;;;3.15;;
54853;SDS011;40747;49.480;8.658;2023-06-10T03:34:48;6.07;;;3.40;;
54853;SDS011;40747;49.480;8.658;2023-06-10T03:37:14;8.85;;;3.70;;
54853;SDS011;40747;49.480;8.658;2023-06-10T03:39:39;6.22;;;3.95;;
54853;SDS011;40747;49.480;8.658;2023-06-10T03:42:04;5.00;;;3.55;;
54853;SDS011;40747;49.480;8.658;2023-06-10T03:44:30;5.82;;;3.83;;
54853;SDS011;40747;49.480;8.658;2023-06-10T03:46:56;6.82;;;4.50;;
54853;SDS011;40747;49.480;8.658;2023-06-10T03:49:22;4.40;;;3.47;;
54853;SDS011;40747;49.480;8.658;2023-06-10T03:51:52;4.65;;;3.85;;
54853;SDS011;40747;49.480;8.658;2023-06-10T03:54:17;6.00;;;3.17;;
54853;SDS011;40747;49.480;8.658;2023-06-10T03:56:42;5.18;;;3.78;;
54853;SDS011;40747;49.480;8.658;2023-06-10T03:59:08;6.18;;;3.38;;
54853;SDS011;40747;49.480;8.658;2023-06-10T04:01:33;5.47;;;4.00;;
54853;SDS011;40747;49.480;8.658;2023-06-10T04:04:00;4.75;;;3.45;;
54853;SDS011;40747;49.480;8.658;2023-06-10T04:06:29;4.25;;;3.72;;
54853;SDS011;40747;49.480;8.658;2023-06-10T04:08:55;5.88;;;3.67;;
54853;SDS011;40747;49.480;8.658;2023-06-10T04:11:22;4.65;;;3.05;;
54853;SDS011;40747;49.480;8.658;2023-06-10T04:13:48;6.88;;;3.85;;
54853;SDS011;40747;49.480;8.658;2023-06-10T04:16:14;4.43;;;3.38;;
54853;SDS011;40747;49.480;8.658;2023-06-10T04:18:40;5.20;;;3.83;;
54853;SDS011;40747;49.480;8.658;2023-06-10T04:21:06;5.00;;;3.60;;
54853;SDS011;40747;49.480;8.658;2023-06-10T04:23:32;5.07;;;3.40;;
54853;SDS011;40747;49.480;8.658;2023-06-10T04:25:57;5.68;;;3.53;;
54853;SDS011;40747;49.480;8.658;2023-06-10T04:28:24;5.30;;;3.55;;
54853;SDS011;40747;49.480;8.658;2023-06-10T04:30:49;4.70;;;3.65;;
54853;SDS011;40747;49.480;8.658;2023-06-10T04:33:15;7.43;;;4.03;;
54853;SDS011;40747;49.480;8.658;2023-06-10T04:35:40;5.43;;;3.75;;
54853;SDS011;40747;49.480;8.658;2023-06-10T04:38:05;6.07;;;4.13;;
54853;SDS011;40747;49.480;8.658;2023-06-10T04:40:30;4.53;;;3.70;;
54853;SDS011;40747;49.480;8.658;2023-06-10T04:42:56;5.28;;;3.72;;
54853;SDS011;40747;49.480;8.658;2023-06-10T04:45:21;4.55;;;3.63;;
54853;SDS011;40747;49.480;8.658;2023-06-10T04:47:47;5.10;;;3.67;;
54853;SDS011;40747;49.480;8.658;2023-06-10T04:50:12;5.22;;;3.63;;
54853;SDS011;40747;49.480;8.658;2023-06-10T04:52:37;4.15;;;3.72;;
54853;SDS011;40747;49.480;8.658;2023-06-10T04:55:02;4.22;;;3.50;;
54853;SDS011;40747;49.480;8.658;2023-06-10T04:57:28;6.07;;;4.10;;
54853;SDS011;40747;49.480;8.658;2023-06-10T04:59:53;6.05;;;4.30;;
54853;SDS011;40747;49.480;8.658;2023-06-10T05:02:18;4.45;;;3.40;;
54853;SDS011;40747;49.480;8.658;2023-06-10T05:04:44;6.85;;;3.80;;
54853;SDS011;40747;49.480;8.658;2023-06-10T05:07:09;9.18;;;4.03;;
54853;SDS011;40747;49.480;8.658;2023-06-10T05:09:35;8.23;;;4.15;;
54853;SDS011;40747;49.480;8.658;2023-06-10T05:12:00;5.57;;;4.35;;
54853;SDS011;40747;49.480;8.658;2023-06-10T05:14:26;5.25;;;4.10;;
54853;SDS011;40747;49.480;8.658;2023-06-10T05:16:52;5.82;;;3.88;;
54853;SDS011;40747;49.480;8.658;2023-06-10T05:19:18;5.28;;;3.72;;
54853;SDS011;40747;49.480;8.658;2023-06-10T05:21:43;4.32;;;3.75;;
54853;SDS011;40747;49.480;8.658;2023-06-10T05:24:09;7.63;;;4.25;;
54853;SDS011;40747;49.480;8.658;2023-06-10T05:26:35;6.07;;;4.13;;
54853;SDS011;40747;49.480;8.658;2023-06-10T05:29:02;6.22;;;4.32;;
54853;SDS011;40747;49.480;8.658;2023-06-10T05:31:31;7.28;;;4.80;;
54853;SDS011;40747;49.480;8.658;2023-06-10T05:33:56;4.72;;;3.90;;
54853;SDS011;40747;49.480;8.658;2023-06-10T05:36:23;6.50;;;3.67;;
54853;SDS011;40747;49.480;8.658;2023-06-10T05:38:50;6.40;;;4.07;;
54853;SDS011;40747;49.480;8.658;2023-06-10T05:41:15;4.97;;;3.70;;
54853;SDS011;40747;49.480;8.658;2023-06-10T05:43:40;4.75;;;3.80;;
54853;SDS011;40747;49.480;8.658;2023-06-10T05:46:06;4.93;;;3.70;;
54853;SDS011;40747;49.480;8.658;2023-06-10T05:48:31;5.88;;;3.95;;
54853;SDS011;40747;49.480;8.658;2023-06-10T05:50:56;6.35;;;4.57;;
54853;SDS011;40747;49.480;8.658;2023-06-10T05:53:22;5.93;;;3.70;;
54853;SDS011;40747;49.480;8.658;2023-06-10T05:55:47;5.00;;;4.10;;
54853;SDS011;40747;49.480;8.658;2023-06-10T05:58:13;5.65;;;4.07;;
54853;SDS011;40747;49.480;8.658;2023-06-10T06:00:39;5.82;;;4.30;;
54853;SDS011;40747;49.480;8.658;2023-06-10T06:03:06;10.82;;;4.43;;
54853;SDS011;40747;49.480;8.658;2023-06-10T06:05:32;9.18;;;4.22;;
54853;SDS011;40747;49.480;8.658;2023-06-10T06:08:00;8.18;;;4.50;;
54853;SDS011;40747;49.480;8.658;2023-06-10T06:10:26;6.78;;;4.78;;
54853;SDS011;40747;49.480;8.658;2023-06-10T06:12:52;8.32;;;4.82;;
54853;SDS011;40747;49.480;8.658;2023-06-10T06:15:17;9.40;;;4.47;;
54853;SDS011;40747;49.480;8.658;2023-06-10T06:17:42;7.35;;;5.00;;
54853;SDS011;40747;49.480;8.658;2023-06-10T06:20:08;6.32;;;4.57;;
54853;SDS011;40747;49.480;8.658;2023-06-10T06:22:33;9.02;;;4.55;;
54853;SDS011;40747;49.480;8.658;2023-06-10T06:24:58;6.50;;;4.50;;
54853;SDS011;40747;49.480;8.658;2023-06-10T06:27:24;9.75;;;4.28;;
54853;SDS011;40747;49.480;8.658;2023-06-10T06:29:49;9.75;;;4.63;;
54853;SDS011;40747;49.480;8.658;2023-06-10T06:32:15;6.90;;;4.32;;
54853;SDS011;40747;49.480;8.658;2023-06-10T06:34:41;7.38;;;5.13;;
54853;SDS011;40747;49.480;8.658;2023-06-10T06:37:06;8.32;;;5.68;;
54853;SDS011;40747;49.480;8.658;2023-06-10T06:39:31;9.32;;;5.00;;
54853;SDS011;40747;49.480;8.658;2023-06-10T06:41:57;7.63;;;5.22;;
54853;SDS011;40747;49.480;8.658;2023-06-10T06:44:22;6.38;;;4.53;;
54853;SDS011;40747;49.480;8.658;2023-06-10T06:46:47;5.35;;;4.45;;
54853;SDS011;40747;49.480;8.658;2023-06-10T06:49:12;7.32;;;4.43;;
54853;SDS011;40747;49.480;8.658;2023-06-10T06:51:38;7.30;;;4.63;;
54853;SDS011;40747;49.480;8.658;2023-06-10T06:54:03;6.60;;;4.75;;
54853;SDS011;40747;49.480;8.658;2023-06-10T06:56:30;5.00;;;4.32;;
54853;SDS011;40747;49.480;8.658;2023-06-10T06:58:55;7.60;;;4.90;;
54853;SDS011;40747;49.480;8.658;2023-06-10T07:01:21;5.72;;;4.68;;
54853;SDS011;40747;49.480;8.658;2023-06-10T07:03:46;6.28;;;4.32;;
54853;SDS011;40747;49.480;8.658;2023-06-10T07:06:12;5.47;;;4.00;;
54853;SDS011;40747;49.480;8.658;2023-06-10T07:08:38;5.82;;;4.28;;
54853;SDS011;40747;49.480;8.658;2023-06-10T07:11:03;4.60;;;3.80;;
54853;SDS011;40747;49.480;8.658;2023-06-10T07:13:29;5.38;;;4.47;;
54853;SDS011;40747;49.480;8.658;2023-06-10T07:15:54;6.22;;;4.30;;
54853;SDS011;40747;49.480;8.658;2023-06-10T07:18:20;6.80;;;4.03;;
54853;SDS011;40747;49.480;8.658;2023-06-10T07:20:45;4.97;;;4.00;;
54853;SDS011;40747;49.480;8.658;2023-06-10T07:23:10;5.07;;;3.67;;
54853;SDS011;40747;49.480;8.658;2023-06-10T07:25:36;4.18;;;3.78;;
54853;SDS011;40747;49.480;8.658;2023-06-10T07:28:01;5.03;;;3.95;;
54853;SDS011;40747;49.480;8.658;2023-06-10T07:30:27;3.92;;;3.47;;
54853;SDS011;40747;49.480;8.658;2023-06-10T07:32:53;4.97;;;4.00;;
54853;SDS011;40747;49.480;8.658;2023-06-10T07:35:18;4.70;;;3.53;;
54853;SDS011;40747;49.480;8.658;2023-06-10T07:37:43;4.18;;;3.42;;
54853;SDS011;40747;49.480;8.658;2023-06-10T07:40:09;5.13;;;3.67;;
54853;SDS011;40747;49.480;8.658;2023-06-10T07:42:35;5.55;;;3.30;;
54853;SDS011;40747;49.480;8.658;2023-06-10T07:45:04;7.07;;;4.18;;
54853;SDS011;40747;49.480;8.658;2023-06-10T07:47:30;5.15;;;4.00;;
54853;SDS011;40747;49.480;8.658;2023-06-10T07:49:56;4.28;;;3.30;;
54853;SDS011;40747;49.480;8.658;2023-06-10T07:52:21;5.00;;;3.65;;
54853;SDS011;40747;49.480;8.658;2023-06-10T07:54:46;4.65;;;4.03;;
54853;SDS011;40747;49.480;8.658;2023-06-10T07:57:12;6.00;;;3.65;;
54853;SDS011;40747;49.480;8.658;2023-06-10T07:59:37;4.68;;;3.25;;
54853;SDS011;40747;49.480;8.658;2023-06-10T08:02:03;5.45;;;3.97;;
54853;SDS011;40747;49.480;8.658;2023-06-10T08:04:29;6.78;;;3.75;;
54853;SDS011;40747;49.480;8.658;2023-06-10T08:06:55;4.75;;;3.50;;
54853;SDS011;40747;49.480;8.658;2023-06-10T08:09:21;4.43;;;3.83;;
54853;SDS011;40747;49.480;8.658;2023-06-10T08:11:48;6.13;;;3.85;;
54853;SDS011;40747;49.480;8.658;2023-06-10T08:14:13;5.05;;;3.92;;
54853;SDS011;40747;49.480;8.658;2023-06-10T08:16:38;4.00;;;3.45;;
54853;SDS011;40747;49.480;8.658;2023-06-10T08:19:03;4.15;;;3.63;;
54853;SDS011;40747;49.480;8.658;2023-06-10T08:21:29;4.80;;;3.72;;
54853;SDS011;40747;49.480;8.658;2023-06-10T08:23:54;7.07;;;4.20;;
54853;SDS011;40747;49.480;8.658;2023-06-10T08:26:20;4.00;;;3.55;;
54853;SDS011;40747;49.480;8.658;2023-06-10T08:28:45;4.57;;;3.75;;
54853;SDS011;40747;49.480;8.658;2023-06-10T08:31:10;5.40;;;3.58;;
54853;SDS011;40747;49.480;8.658;2023-06-10T08:33:36;6.95;;;3.15;;
54853;SDS011;40747;49.480;8.658;2023-06-10T08:36:01;4.72;;;3.88;;
54853;SDS011;40747;49.480;8.658;2023-06-10T08:38:26;4.68;;;4.05;;
54853;SDS011;40747;49.480;8.658;2023-06-10T08:40:51;4.68;;;3.85;;
54853;SDS011;40747;49.480;8.658;2023-06-10T08:43:22;4.70;;;4.07;;
54853;SDS011;40747;49.480;8.658;2023-06-10T08:45:59;5.97;;;4.18;;
54853;SDS011;40747;49.480;8.658;2023-06-10T08:48:27;4.22;;;3.65;;
54853;SDS011;40747;49.480;8.658;2023-06-10T08:50:55;4.70;;;3.67;;
54853;SDS011;40747;49.480;8.658;2023-06-10T08:53:22;9.30;;;4.60;;
54853;SDS011;40747;49.480;8.658;2023-06-10T08:55:52;4.53;;;3.70;;
54853;SDS011;40747;49.480;8.658;2023-06-10T08:58:18;4.78;;;3.72;;
54853;SDS011;40747;49.480;8.658;2023-06-10T09:00:44;6.22;;;3.97;;
54853;SDS011;40747;49.480;8.658;2023-06-10T09:03:10;5.80;;;4.32;;
54853;SDS011;40747;49.480;8.658;2023-06-10T09:05:36;4.07;;;3.67;;
54853;SDS011;40747;49.480;8.658;2023-06-10T09:08:02;4.10;;;3.60;;
54853;SDS011;40747;49.480;8.658;2023-06-10T09:10:27;5.45;;;3.53;;
54853;SDS011;40747;49.480;8.658;2023-06-10T09:12:52;5.63;;;4.00;;
54853;SDS011;40747;49.480;8.658;2023-06-10T09:15:18;4.97;;;3.63;;
54853;SDS011;40747;49.480;8.658;2023-06-10T09:17:44;5.38;;;3.90;;
54853;SDS011;40747;49.480;8.658;2023-06-10T09:20:10;4.07;;;3.60;;
54853;SDS011;40747;49.480;8.658;2023-06-10T09:22:36;4.63;;;3.42;;
54853;SDS011;40747;49.480;8.658;2023-06-10T09:25:11;4.38;;;3.25;;
54853;SDS011;40747;49.480;8.658;2023-06-10T09:27:44;5.05;;;3.63;;
54853;SDS011;40747;49.480;8.658;2023-06-10T09:30:11;4.70;;;3.17;;
54853;SDS011;40747;49.480;8.658;2023-06-10T09:32:49;4.60;;;3.63;;
54853;SDS011;40747;49.480;8.658;2023-06-10T09:35:15;5.03;;;3.42;;
54853;SDS011;40747;49.480;8.658;2023-06-10T09:37:41;3.60;;;3.10;;
54853;SDS011;40747;49.480;8.658;2023-06-10T09:40:09;3.75;;;3.05;;
54853;SDS011;40747;49.480;8.658;2023-06-10T09:42:35;3.38;;;3.08;;
54853;SDS011;40747;49.480;8.658;2023-06-10T09:45:03;6.35;;;3.40;;
54853;SDS011;40747;49.480;8.658;2023-06-10T09:47:29;4.90;;;4.40;;
54853;SDS011;40747;49.480;8.658;2023-06-10T09:49:54;3.90;;;3.25;;
54853;SDS011;40747;49.480;8.658;2023-06-10T09:52:26;3.10;;;2.65;;
54853;SDS011;40747;49.480;8.658;2023-06-10T09:54:53;3.95;;;3.00;;
54853;SDS011;40747;49.480;8.658;2023-06-10T09:57:19;3.90;;;2.83;;
54853;SDS011;40747;49.480;8.658;2023-06-10T09:59:46;3.10;;;2.80;;
54853;SDS011;40747;49.480;8.658;2023-06-10T10:02:15;4.03;;;3.28;;
54853;SDS011;40747;49.480;8.658;2023-06-10T10:04:41;4.15;;;3.35;;
54853;SDS011;40747;49.480;8.658;2023-06-10T10:07:07;3.88;;;2.67;;
54853;SDS011;40747;49.480;8.658;2023-06-10T10:09:33;4.07;;;3.22;;
54853;SDS011;40747;49.480;8.658;2023-06-10T10:12:00;5.60;;;3.10;;
54853;SDS011;40747;49.480;8.658;2023-06-10T10:14:28;3.60;;;3.30;;
54853;SDS011;40747;49.480;8.658;2023-06-10T10:16:56;3.20;;;2.90;;
54853;SDS011;40747;49.480;8.658;2023-06-10T10:19:25;3.13;;;2.83;;
54853;SDS011;40747;49.480;8.658;2023-06-10T10:21:55;3.63;;;3.30;;
54853;SDS011;40747;49.480;8.658;2023-06-10T10:24:27;3.65;;;3.13;;
54853;SDS011;40747;49.480;8.658;2023-06-10T10:29:24;3.80;;;3.40;;
54853;SDS011;40747;49.480;8.658;2023-06-10T10:31:56;3.90;;;2.67;;
54853;SDS011;40747;49.480;8.658;2023-06-10T10:34:35;5.22;;;3.50;;
54853;SDS011;40747;49.480;8.658;2023-06-10T10:37:06;3.45;;;2.60;;
54853;SDS011;40747;49.480;8.658;2023-06-10T10:39:33;3.65;;;3.30;;
54853;SDS011;40747;49.480;8.658;2023-06-10T10:42:00;3.63;;;3.08;;
54853;SDS011;40747;49.480;8.658;2023-06-10T10:44:28;4.65;;;2.90;;
54853;SDS011;40747;49.480;8.658;2023-06-10T10:46:54;5.07;;;2.53;;
54853;SDS011;40747;49.480;8.658;2023-06-10T10:49:21;4.35;;;3.00;;
54853;SDS011;40747;49.480;8.658;2023-06-10T10:51:54;2.97;;;2.65;;
54853;SDS011;40747;49.480;8.658;2023-06-10T10:54:21;4.38;;;3.15;;
54853;SDS011;40747;49.480;8.658;2023-06-10T10:59:44;2.40;;;2.20;;
54853;SDS011;40747;49.480;8.658;2023-06-10T11:02:37;4.55;;;2.75;;
54853;SDS011;40747;49.480;8.658;2023-06-10T11:05:08;2.55;;;2.20;;
54853;SDS011;40747;49.480;8.658;2023-06-10T11:07:35;3.38;;;2.58;;
54853;SDS011;40747;49.480;8.658;2023-06-10T11:10:08;2.55;;;2.35;;
54853;SDS011;40747;49.480;8.658;2023-06-10T11:12:41;4.75;;;2.95;;
54853;SDS011;40747;49.480;8.658;2023-06-10T11:15:09;3.42;;;2.88;;
54853;SDS011;40747;49.480;8.658;2023-06-10T11:17:34;3.30;;;2.92;;
54853;SDS011;40747;49.480;8.658;2023-06-10T11:20:00;4.18;;;2.97;;
54853;SDS011;40747;49.480;8.658;2023-06-10T11:22:25;4.18;;;2.97;;
54853;SDS011;40747;49.480;8.658;2023-06-10T11:24:50;4.13;;;2.63;;
54853;SDS011;40747;49.480;8.658;2023-06-10T11:29:58;4.07;;;2.83;;
54853;SDS011;40747;49.480;8.658;2023-06-10T11:32:43;6.32;;;3.00;;
54853;SDS011;40747;49.480;8.658;2023-06-10T11:35:09;3.55;;;3.08;;
54853;SDS011;40747;49.480;8.658;2023-06-10T11:37:37;4.10;;;3.03;;
54853;SDS011;40747;49.480;8.658;2023-06-10T11:40:03;3.97;;;3.00;;
54853;SDS011;40747;49.480;8.658;2023-06-10T11:42:29;3.40;;;3.05;;
54853;SDS011;40747;49.480;8.658;2023-06-10T11:44:54;3.10;;;2.80;;
54853;SDS011;40747;49.480;8.658;2023-06-10T11:47:20;4.37;;;3.60;;
54853;SDS011;40747;49.480;8.658;2023-06-10T11:49:46;3.50;;;3.20;;
54853;SDS011;40747;49.480;8.658;2023-06-10T11:52:28;8.05;;;3.15;;
54853;SDS011;40747;49.480;8.658;2023-06-10T11:54:54;5.45;;;3.50;;
54853;SDS011;40747;49.480;8.658;2023-06-10T11:57:20;5.45;;;3.72;;
54853;SDS011;40747;49.480;8.658;2023-06-10T11:59:46;4.28;;;2.85;;
54853;SDS011;40747;49.480;8.658;2023-06-10T12:02:14;3.90;;;3.50;;
54853;SDS011;40747;49.480;8.658;2023-06-10T12:04:44;4.60;;;3.60;;
54853;SDS011;40747;49.480;8.658;2023-06-10T12:07:14;3.92;;;3.05;;
54853;SDS011;40747;49.480;8.658;2023-06-10T12:09:42;4.32;;;3.33;;
54853;SDS011;40747;49.480;8.658;2023-06-10T12:12:08;3.70;;;3.08;;
54853;SDS011;40747;49.480;8.658;2023-06-10T12:14:51;3.95;;;3.38;;
54853;SDS011;40747;49.480;8.658;2023-06-10T12:19:55;4.63;;;3.15;;
54853;SDS011;40747;49.480;8.658;2023-06-10T12:22:20;4.22;;;3.33;;
54853;SDS011;40747;49.480;8.658;2023-06-10T12:24:56;4.68;;;2.97;;
54853;SDS011;40747;49.480;8.658;2023-06-10T12:27:26;3.45;;;2.92;;
54853;SDS011;40747;49.480;8.658;2023-06-10T12:29:54;4.32;;;3.17;;
54853;SDS011;40747;49.480;8.658;2023-06-10T12:32:20;3.70;;;3.20;;
54853;SDS011;40747;49.480;8.658;2023-06-10T12:35:01;3.97;;;3.17;;
54853;SDS011;40747;49.480;8.658;2023-06-10T12:37:28;3.72;;;3.00;;
54853;SDS011;40747;49.480;8.658;2023-06-10T12:39:54;3.58;;;3.20;;
54853;SDS011;40747;49.480;8.658;2023-06-10T12:42:21;3.72;;;3.33;;
54853;SDS011;40747;49.480;8.658;2023-06-10T12:44:52;5.63;;;3.10;;
54853;SDS011;40747;49.480;8.658;2023-06-10T12:47:18;3.58;;;3.10;;
54853;SDS011;40747;49.480;8.658;2023-06-10T12:49:44;6.13;;;3.70;;
54853;SDS011;40747;49.480;8.658;2023-06-10T12:52:09;5.10;;;3.40;;
54853;SDS011;40747;49.480;8.658;2023-06-10T12:54:34;4.20;;;3.00;;
54853;SDS011;40747;49.480;8.658;2023-06-10T12:57:00;4.85;;;3.40;;
54853;SDS011;40747;49.480;8.658;2023-06-10T12:59:25;4.78;;;3.17;;
54853;SDS011;40747;49.480;8.658;2023-06-10T13:01:52;5.70;;;3.25;;
54853;SDS011;40747;49.480;8.658;2023-06-10T13:04:19;4.25;;;3.20;;
54853;SDS011;40747;49.480;8.658;2023-06-10T13:06:44;3.22;;;2.92;;
54853;SDS011;40747;49.480;8.658;2023-06-10T13:09:11;4.13;;;3.28;;
54853;SDS011;40747;49.480;8.658;2023-06-10T13:11:37;3.75;;;3.40;;
54853;SDS011;40747;49.480;8.658;2023-06-10T13:14:03;5.00;;;3.53;;
54853;SDS011;40747;49.480;8.658;2023-06-10T13:16:30;4.07;;;3.40;;
54853;SDS011;40747;49.480;8.658;2023-06-10T13:18:56;3.55;;;3.10;;
54853;SDS011;40747;49.480;8.658;2023-06-10T13:21:21;5.50;;;3.72;;
54853;SDS011;40747;49.480;8.658;2023-06-10T13:23:47;3.40;;;3.10;;
54853;SDS011;40747;49.480;8.658;2023-06-10T13:26:13;5.55;;;3.35;;
54853;SDS011;40747;49.480;8.658;2023-06-10T13:28:39;3.70;;;3.30;;
54853;SDS011;40747;49.480;8.658;2023-06-10T13:31:04;5.65;;;3.17;;
54853;SDS011;40747;49.480;8.658;2023-06-10T13:33:30;3.10;;;2.63;;
54853;SDS011;40747;49.480;8.658;2023-06-10T13:35:55;3.78;;;3.30;;
54853;SDS011;40747;49.480;8.658;2023-06-10T13:38:20;3.67;;;2.78;;
54853;SDS011;40747;49.480;8.658;2023-06-10T13:40:46;2.47;;;2.28;;
54853;SDS011;40747;49.480;8.658;2023-06-10T13:43:11;3.45;;;2.83;;
54853;SDS011;40747;49.480;8.658;2023-06-10T13:45:38;3.20;;;2.90;;
54853;SDS011;40747;49.480;8.658;2023-06-10T13:48:03;3.17;;;2.70;;
54853;SDS011;40747;49.480;8.658;2023-06-10T13:50:30;3.60;;;2.85;;
54853;SDS011;40747;49.480;8.658;2023-06-10T13:52:56;3.92;;;2.63;;
54853;SDS011;40747;49.480;8.658;2023-06-10T13:55:21;3.25;;;2.95;;
54853;SDS011;40747;49.480;8.658;2023-06-10T13:57:46;4.55;;;3.10;;
54853;SDS011;40747;49.480;8.658;2023-06-10T14:00:12;4.28;;;3.13;;
54853;SDS011;40747;49.480;8.658;2023-06-10T14:02:38;3.28;;;2.97;;
54853;SDS011;40747;49.480;8.658;2023-06-10T14:05:03;3.58;;;2.55;;
54853;SDS011;40747;49.480;8.658;2023-06-10T14:07:30;3.15;;;2.85;;
54853;SDS011;40747;49.480;8.658;2023-06-10T14:09:55;6.17;;;3.10;;
54853;SDS011;40747;49.480;8.658;2023-06-10T14:12:21;6.20;;;2.83;;
54853;SDS011;40747;49.480;8.658;2023-06-10T14:14:47;5.07;;;2.60;;
54853;SDS011;40747;49.480;8.658;2023-06-10T14:17:12;3.35;;;2.78;;
54853;SDS011;40747;49.480;8.658;2023-06-10T14:19:37;3.22;;;2.92;;
54853;SDS011;40747;49.480;8.658;2023-06-10T14:22:03;3.90;;;3.13;;
54853;SDS011;40747;49.480;8.658;2023-06-10T14:24:28;3.45;;;2.88;;
54853;SDS011;40747;49.480;8.658;2023-06-10T14:26:54;4.32;;;3.00;;
54853;SDS011;40747;49.480;8.658;2023-06-10T14:29:19;3.50;;;2.90;;
54853;SDS011;40747;49.480;8.658;2023-06-10T14:31:44;3.88;;;2.92;;
54853;SDS011;40747;49.480;8.658;2023-06-10T14:34:10;4.47;;;3.00;;
54853;SDS011;40747;49.480;8.658;2023-06-10T14:36:35;3.20;;;2.90;;
54853;SDS011;40747;49.480;8.658;2023-06-10T14:39:02;3.20;;;2.90;;
54853;SDS011;40747;49.480;8.658;2023-06-10T14:41:27;3.20;;;2.90;;
54853;SDS011;40747;49.480;8.658;2023-06-10T14:43:52;6.88;;;3.38;;
54853;SDS011;40747;49.480;8.658;2023-06-10T14:46:18;2.97;;;2.67;;
54853;SDS011;40747;49.480;8.658;2023-06-10T14:48:45;3.13;;;2.83;;
54853;SDS011;40747;49.480;8.658;2023-06-10T14:51:11;3.80;;;2.90;;
54853;SDS011;40747;49.480;8.658;2023-06-10T14:53:36;3.30;;;2.80;;
54853;SDS011;40747;49.480;8.658;2023-06-10T14:56:01;6.30;;;3.10;;